createdAt,value
2018-12-06T00:00:01.042Z,1.07
2018-12-06T00:02:31.850Z,1.10
2018-12-06T00:05:02.180Z,1.00
2018-12-06T00:07:32.494Z,1.30
2018-12-06T00:10:02.681Z,1.07
2018-12-06T00:12:32.966Z,1.43
2018-12-06T00:15:24.214Z,1.10
2018-12-06T00:17:54.859Z,1.30
2018-12-06T00:20:25.144Z,1.50
2018-12-06T00:22:55.686Z,1.50
2018-12-06T00:25:26.074Z,1.27
2018-12-06T00:27:56.611Z,0.80
2018-12-06T00:30:44.486Z,1.17
2018-12-06T00:33:15.114Z,1.10
2018-12-06T00:35:45.333Z,1.03
2018-12-06T00:38:15.582Z,0.70
2018-12-06T00:40:45.892Z,1.00
2018-12-06T00:43:16.559Z,1.00
2018-12-06T00:45:47.225Z,0.77
2018-12-06T00:48:17.672Z,0.60
2018-12-06T00:50:47.996Z,0.93
2018-12-06T00:53:18.650Z,0.93
2018-12-06T00:55:48.954Z,0.70
2018-12-06T00:58:19.584Z,1.00
2018-12-06T01:00:50.376Z,1.30
2018-12-06T01:03:20.902Z,1.60
2018-12-06T01:05:51.595Z,2.13
2018-12-06T01:08:22.138Z,1.50
2018-12-06T01:10:52.764Z,1.70
2018-12-06T01:13:23.611Z,1.30
2018-12-06T01:15:54.146Z,2.93
2018-12-06T01:18:24.609Z,2.80
2018-12-06T01:20:55.148Z,4.20
2018-12-06T01:23:25.585Z,1.20
2018-12-06T01:25:56.279Z,1.70
2018-12-06T01:28:27.025Z,2.23
2018-12-06T01:30:57.694Z,1.60
2018-12-06T01:33:28.571Z,1.37
2018-12-06T01:35:59.218Z,1.40
2018-12-06T01:38:30.068Z,1.23
2018-12-06T01:41:00.655Z,1.30
2018-12-06T01:43:31.176Z,1.30
2018-12-06T01:46:01.865Z,1.00
2018-12-06T01:48:32.641Z,1.00
2018-12-06T01:51:03.894Z,1.03
2018-12-06T01:53:36.153Z,0.90
2018-12-06T01:56:07.120Z,1.00
2018-12-06T01:58:38.233Z,0.97
2018-12-06T02:01:09.146Z,0.70
2018-12-06T02:03:39.886Z,0.80
2018-12-06T02:06:10.952Z,1.00
2018-12-06T02:08:42.061Z,0.80
2018-12-06T02:11:12.677Z,0.83
2018-12-06T02:13:42.956Z,0.83
2018-12-06T02:16:13.175Z,0.83
2018-12-06T02:18:43.546Z,1.07
2018-12-06T02:21:13.990Z,0.60
2018-12-06T02:23:44.286Z,1.00
2018-12-06T02:26:14.435Z,0.90
2018-12-06T02:28:44.918Z,0.70
2018-12-06T02:31:15.445Z,1.00
2018-12-06T02:33:45.904Z,0.90
2018-12-06T02:36:16.299Z,0.50
2018-12-06T02:38:47.108Z,0.70
2018-12-06T02:41:17.491Z,0.80
2018-12-06T02:43:47.697Z,0.97
2018-12-06T02:46:17.984Z,0.80
2018-12-06T02:48:48.126Z,0.67
2018-12-06T02:51:18.541Z,1.00
2018-12-06T02:53:48.820Z,1.00
2018-12-06T02:56:19.108Z,1.10
2018-12-06T02:58:49.617Z,1.07
2018-12-06T03:01:20.567Z,1.00
2018-12-06T03:03:52.560Z,0.70
2018-12-06T03:06:23.466Z,0.90
2018-12-06T03:08:55.525Z,1.03
2018-12-06T03:11:25.949Z,0.90
2018-12-06T03:13:56.095Z,1.13
2018-12-06T03:16:28.012Z,1.20
2018-12-06T03:18:58.509Z,1.10
2018-12-06T03:21:28.981Z,1.40
2018-12-06T03:23:59.461Z,1.17
2018-12-06T03:26:31.790Z,1.17
2018-12-06T03:29:02.655Z,1.37
2018-12-06T03:31:32.841Z,1.53
2018-12-06T03:34:03.258Z,1.20
2018-12-06T03:36:33.643Z,1.30
2018-12-06T03:39:04.099Z,1.40
2018-12-06T03:41:34.765Z,1.73
2018-12-06T03:44:05.205Z,1.67
2018-12-06T03:46:35.670Z,1.40
2018-12-06T03:49:05.937Z,1.80
2018-12-06T03:51:36.212Z,1.30
2018-12-06T03:54:06.459Z,1.80
2018-12-06T03:56:36.733Z,1.47
2018-12-06T03:59:07.009Z,1.43
2018-12-06T04:01:37.399Z,1.87
2018-12-06T04:04:07.976Z,1.80
2018-12-06T04:06:38.655Z,1.70
2018-12-06T04:09:09.175Z,2.00
2018-12-06T04:11:39.623Z,1.77
2018-12-06T04:14:09.968Z,1.90
2018-12-06T04:16:40.186Z,2.10
2018-12-06T04:19:10.569Z,2.13
2018-12-06T04:21:40.928Z,1.60
2018-12-06T04:24:11.591Z,2.10
2018-12-06T04:26:41.917Z,2.10
2018-12-06T04:29:12.732Z,2.40
2018-12-06T04:31:43.327Z,2.40
2018-12-06T04:34:15.092Z,2.37
2018-12-06T04:36:46.029Z,2.00
2018-12-06T04:39:16.880Z,1.97
2018-12-06T04:41:47.714Z,2.30
2018-12-06T04:44:18.057Z,2.30
2018-12-06T04:46:48.411Z,2.60
2018-12-06T04:49:23.076Z,2.20
2018-12-06T04:51:53.709Z,2.30
2018-12-06T04:54:24.221Z,2.20
2018-12-06T04:56:56.481Z,2.37
2018-12-06T04:59:27.124Z,2.43
2018-12-06T05:01:57.818Z,2.17
2018-12-06T05:04:28.037Z,2.23
2018-12-06T05:06:58.493Z,2.60
2018-12-06T05:09:28.662Z,2.00
2018-12-06T05:11:58.828Z,2.33
2018-12-06T05:14:29.631Z,2.27
2018-12-06T05:16:59.878Z,2.10
2018-12-06T05:19:30.304Z,2.20
2018-12-06T05:22:00.500Z,2.20
2018-12-06T05:24:30.887Z,1.80
2018-12-06T05:27:01.586Z,2.03
2018-12-06T05:29:32.676Z,1.77
2018-12-06T05:32:02.914Z,2.17
2018-12-06T05:34:33.649Z,1.77
2018-12-06T05:37:05.704Z,1.60
2018-12-06T05:39:36.344Z,1.47
2018-12-06T05:42:06.667Z,1.80
2018-12-06T05:44:36.875Z,1.83
2018-12-06T05:47:07.100Z,1.30
2018-12-06T05:49:37.496Z,1.50
2018-12-06T05:52:07.869Z,1.97
2018-12-06T05:54:37.986Z,1.60
2018-12-06T05:57:09.016Z,1.83
2018-12-06T05:59:39.546Z,1.60
2018-12-06T06:02:09.937Z,1.57
2018-12-06T06:04:40.454Z,1.50
2018-12-06T06:07:11.268Z,1.33
2018-12-06T06:09:41.349Z,1.40
2018-12-06T06:12:11.515Z,1.67
2018-12-06T06:14:41.814Z,1.40
2018-12-06T06:17:12.076Z,1.27
2018-12-06T06:19:42.505Z,1.50
2018-12-06T06:22:12.694Z,1.30
2018-12-06T06:24:42.788Z,1.53
2018-12-06T06:27:13.109Z,1.30
2018-12-06T06:29:43.807Z,1.57
2018-12-06T06:32:14.628Z,1.73
2018-12-06T06:34:44.989Z,1.60
2018-12-06T06:37:15.187Z,1.60
2018-12-06T06:39:45.731Z,1.67
2018-12-06T06:42:16.112Z,1.63
2018-12-06T06:44:46.775Z,1.70
2018-12-06T06:47:17.528Z,1.40
2018-12-06T06:49:48.396Z,1.90
2018-12-06T06:52:18.506Z,1.93
2018-12-06T06:54:49.025Z,1.80
2018-12-06T06:57:19.776Z,1.80
2018-12-06T06:59:49.986Z,1.90
2018-12-06T08:53:16.318Z,0.50
2018-12-06T08:55:47.616Z,0.87
2018-12-06T08:58:18.040Z,0.50
2018-12-06T09:00:48.388Z,0.77
2018-12-06T09:03:19.204Z,0.80
2018-12-06T09:05:49.598Z,0.83
2018-12-06T09:08:20.486Z,0.70
2018-12-06T09:10:51.956Z,0.70
2018-12-06T09:13:21.606Z,1.20
2018-12-06T09:15:51.887Z,1.37
2018-12-06T09:18:22.102Z,1.50
2018-12-06T09:20:52.583Z,1.50
2018-12-06T09:23:22.626Z,1.80
2018-12-06T09:25:53.028Z,1.50
2018-12-06T09:28:23.425Z,2.07
2018-12-06T09:31:00.886Z,2.37
2018-12-06T09:33:25.132Z,2.10
2018-12-06T09:35:55.706Z,2.60
2018-12-06T09:38:26.493Z,3.20
2018-12-06T09:40:56.832Z,2.93
2018-12-06T09:43:27.226Z,3.17
2018-12-06T09:45:57.953Z,3.17
2018-12-06T09:48:28.274Z,3.50
2018-12-06T09:50:58.995Z,3.40
2018-12-06T09:53:29.564Z,4.23
2018-12-06T09:56:00.646Z,3.33
2018-12-06T09:58:31.209Z,2.10
2018-12-06T10:01:02.564Z,2.27
2018-12-06T10:03:32.913Z,2.03
2018-12-06T10:06:03.385Z,2.20
2018-12-06T10:08:33.662Z,2.00
2018-12-06T10:11:04.138Z,1.87
2018-12-06T10:13:34.787Z,1.50
2018-12-06T10:16:05.805Z,1.70
2018-12-06T10:18:36.420Z,1.97
2018-12-06T10:21:07.131Z,1.40
2018-12-06T10:23:39.293Z,1.80
2018-12-06T10:26:07.995Z,1.50
2018-12-06T10:28:38.513Z,1.77
2018-12-06T10:31:08.913Z,1.50
2018-12-06T10:33:39.381Z,1.30
2018-12-06T10:36:10.034Z,1.57
2018-12-06T10:38:40.312Z,1.90
2018-12-06T10:41:10.951Z,1.70
2018-12-06T10:43:41.593Z,1.50
2018-12-06T10:46:12.839Z,2.27
2018-12-06T10:48:43.680Z,1.23
2018-12-06T10:51:30.538Z,1.80
2018-12-06T10:54:01.046Z,1.37
2018-12-06T10:56:31.579Z,1.10
2018-12-06T10:59:01.970Z,1.50
2018-12-06T11:01:38.074Z,1.30
2018-12-06T11:04:08.514Z,1.30
2018-12-06T11:06:38.980Z,1.40
2018-12-06T11:09:09.990Z,1.60
2018-12-06T11:11:40.529Z,1.30
2018-12-06T11:14:10.992Z,1.30
2018-12-06T11:16:41.399Z,1.40
2018-12-06T11:19:11.843Z,1.33
2018-12-06T11:21:42.217Z,1.63
2018-12-06T11:24:12.824Z,1.50
2018-12-06T11:26:43.180Z,1.77
2018-12-06T11:29:13.486Z,1.47
2018-12-06T11:31:44.431Z,1.33
2018-12-06T11:34:15.304Z,2.10
2018-12-06T11:36:46.066Z,1.40
2018-12-06T11:42:25.927Z,1.37
2018-12-06T11:45:06.436Z,1.13
2018-12-06T11:47:37.097Z,1.10
2018-12-06T11:50:13.699Z,1.30
2018-12-06T12:02:12.923Z,1.70
2018-12-06T12:07:53.096Z,1.10
2018-12-06T12:10:23.471Z,1.30
2018-12-06T12:12:53.897Z,1.27
2018-12-06T12:15:24.235Z,1.07
2018-12-06T12:17:54.742Z,0.73
2018-12-06T12:20:25.240Z,0.70
2018-12-06T12:22:55.539Z,1.07
2018-12-06T12:25:26.130Z,0.70
2018-12-06T12:27:56.645Z,0.90
2018-12-06T12:34:00.063Z,0.70
2018-12-06T12:36:30.767Z,1.10
2018-12-06T12:39:01.867Z,0.90
2018-12-06T12:41:32.797Z,0.70
2018-12-06T12:47:12.537Z,1.20
2018-12-06T12:49:42.988Z,1.00
2018-12-06T12:52:36.434Z,1.50
2018-12-06T12:58:16.887Z,1.00
2018-12-06T13:00:47.142Z,1.10
2018-12-06T13:03:17.364Z,1.20
2018-12-06T13:05:47.900Z,1.20
2018-12-06T13:08:18.401Z,1.40
2018-12-06T13:10:48.500Z,1.30
2018-12-06T13:13:18.656Z,1.30
2018-12-06T13:15:49.339Z,0.93
2018-12-06T13:18:19.823Z,1.93
2018-12-06T13:20:55.936Z,1.43
2018-12-06T13:23:26.915Z,1.40
2018-12-06T13:25:57.384Z,1.10
2018-12-06T13:28:28.141Z,1.30
2018-12-06T13:36:36.184Z,1.53
2018-12-06T14:00:41.109Z,1.50
2018-12-06T14:28:47.344Z,1.77
2018-12-06T15:15:57.129Z,1.97
